Latest Coastal Weather Observations for Derby

IDW60701

Issued at 3:22 pm WST Thursday 18 December 2014 (issued every 10 minutes, with the page automatically refreshed every 10 minutes)

About coastal observations | Map of coastal stations | Coastal observations for WA | Marine services | Other Formats
Station Details ID: 003032 Name: DERBY AERO Lat: -17.37 Lon: 123.66 Height: 6.2 m
Data from the previous 72 hours. | See also: Recent months at Derby
Date/Time
WST
Temp

°C
Wind Pressure Rain
since 9am
mm
Weather Cloud Vis
km
Sea
Height
m
Swell
Dir
 
Speed
knots
Gust
knots
hPa Trend Height
m
Period
s
Dir
18/03:00pm 36.2 NW 11 14 1004.8 - 0.0 - - - - - - -
18/02:30pm 36.7 NW 9 12 1005.4 - 0.0 - - - - - - -
18/02:00pm 36.0 NW 10 13 1006.0 - 0.0 - - - - - - -
18/01:30pm 36.1 NW 9 14 1006.5 - 0.0 - - - - - - -
18/01:00pm 36.2 NNW 4 7 1006.9 - 0.0 - - - - - - -
18/12:30pm 36.0 SW 3 8 1007.2 - 0.0 - - - - - - -
18/12:00pm 36.1 NW 4 6 1007.7 - 0.0 - - - - - - -
18/11:30am 35.0 NNW 4 8 1008.1 - 0.0 - - - - - - -
18/11:00am 34.1 NNW 5 7 1008.6 - 0.0 - - - - - - -
18/10:30am 34.0 WNW 5 8 1008.7 - 0.0 - - - - - - -
18/10:00am 33.2 WSW 3 7 1009.0 - 0.0 - - - - - - -
18/09:30am 32.1 W 5 8 1009.4 - 0.0 - - - - - - -
18/09:00am 32.0 SW 6 10 1009.4 - 0.0 - - - - - - -
18/08:30am 31.4 SSW 7 9 1009.2 - 0.0 - - - - - - -
18/08:00am 30.9 WSW 6 9 1009.2 - 0.0 - - - - - - -
18/07:30am 30.2 SSW 4 7 1009.1 - 0.0 - - - - - - -
18/07:00am 29.8 WSW 3 5 1008.8 - 0.0 - - - - - - -
18/06:30am 29.4 CALM 0 0 1008.4 - 0.0 - - - - - - -
18/06:00am 28.1 CALM 0 0 1008.1 - 0.0 - - - - - - -
18/05:30am 28.0 CALM 0 0 1007.7 - 0.0 - - - - - - -
18/05:00am 27.7 CALM 0 0 1007.4 - 0.0 - - - - - - -
18/04:30am 27.8 CALM 0 0 1007.2 - 0.0 - - - - - - -
18/04:00am 27.9 CALM 0 0 1007.0 - 0.0 - - - - - - -
18/03:30am 28.0 SW 3 4 1006.8 - 0.0 - - - - - - -
18/03:00am 28.1 SW 5 6 1006.6 - 0.0 - - - - - - -
18/02:30am 28.3 SW 4 6 1006.5 - 0.0 - - - - - - -
18/02:00am 28.4 SSW 6 8 1006.2 - 0.0 - - - - - - -
18/01:30am 28.4 SW 6 8 1006.3 - 0.0 - - - - - - -
18/01:00am 28.7 WSW 9 11 1006.5 - 0.0 - - - - - - -
18/12:30am 28.9 SW 9 12 1006.4 - 0.0 - - - - - - -
18/12:00am 29.1 WSW 7 9 1006.6 - 0.0 - - - - - - -
 
Date/Time
WST
Temp

°C
Wind Pressure Rain
since 9am
mm
Weather Cloud Vis
km
Sea
Height
m
Swell
Dir
 
Speed
knots
Gust
knots
hPa Trend Height
m
Period
s
Dir
17/11:30pm 29.4 WSW 7 9 1006.8 - 0.0 - - - - - - -
17/11:00pm 29.9 W 8 9 1007.0 - 0.0 - - - - - - -
17/10:30pm 30.3 W 9 11 1007.1 - 0.0 - - - - - - -
17/10:00pm 30.6 W 10 13 1006.8 - 0.0 - - - - - - -
17/09:30pm 30.9 W 12 14 1006.4 - 0.0 - - - - - - -
17/09:00pm 31.3 WNW 9 12 1006.2 - 0.0 - - - - - - -
17/08:30pm 31.3 WNW 9 11 1006.1 - 0.0 - - - - - - -
17/08:00pm 31.4 NW 9 11 1006.0 - 0.0 - - - - - - -
17/07:30pm 31.4 NW 10 12 1005.6 - 0.0 - - - - - - -
17/07:00pm 31.9 NW 11 13 1005.0 - 0.0 - - - - - - -
17/06:30pm 32.8 NW 9 11 1004.6 - 0.0 - - - - - - -
17/06:00pm 33.3 NNW 11 12 1004.5 - 0.0 - - - - - - -
17/05:30pm 33.6 NNW 12 14 1004.2 - 0.0 - - - - - - -
17/05:00pm 34.8 NNW 9 11 1004.1 - 0.0 - - - - - - -
17/04:30pm 35.3 WNW 8 11 1004.0 - 0.0 - - - - - - -
17/04:00pm 35.8 W 3 7 1003.9 - 0.0 - - - - - - -
17/03:30pm 35.8 WSW 6 9 1003.7 - 0.0 - - - - - - -
17/03:00pm 35.6 WSW 5 8 1003.6 - 0.0 - - - - - - -
17/02:30pm 35.0 WNW 8 11 1004.0 - 0.0 - - - - - - -
17/02:00pm 34.5 NNW 11 16 1004.4 - 0.0 - - - - - - -
17/01:30pm 35.7 E 4 8 1005.1 - 0.0 - - - - - - -
17/01:00pm 35.6 SSE 6 8 1005.6 - 0.0 - - - - - - -
17/12:30pm 35.2 SE 5 11 1006.0 - 0.0 - - - - - - -
17/12:00pm 34.5 ENE 5 8 1006.4 - 0.0 - - - - - - -
17/11:30am 33.3 S 10 14 1006.9 - 0.0 - - - - - - -
17/11:00am 33.0 S 6 11 1007.3 - 0.0 - - - - - - -
17/10:30am 32.5 S 7 10 1007.7 - 0.0 - - - - - - -
17/10:00am 32.0 S 6 10 1008.2 - 0.0 - - - - - - -
17/09:30am 31.1 SSE 7 10 1008.5 - 0.0 - - - - - - -
17/09:00am 30.8 SSE 7 10 1008.5 - 35.8 - - - - - - -
17/08:30am 30.0 SSE 6 10 1008.4 - 35.8 - - - - - - -
17/08:00am 30.0 SSE 5 9 1008.4 - 35.8 - - - - - - -
17/07:30am 29.1 SE 5 6 1008.2 - 35.8 - - - - - - -
17/07:00am 27.5 SSE 6 7 1007.7 - 35.8 - - - - - - -
17/06:30am 26.9 SSE 5 8 1007.1 - 35.8 - - - - - - -
17/06:00am 25.8 SW 5 7 1006.2 - 35.8 - - - - - - -
17/05:30am 25.3 SW 6 7 1005.6 - 35.8 - - - - - - -
17/05:00am 25.2 SW 6 7 1005.0 - 35.8 - - - - - - -
17/04:30am 25.4 SSW 4 5 1004.9 - 35.8 - - - - - - -
17/04:00am 25.2 SW 6 7 1004.6 - 35.8 - - - - - - -
17/03:30am 25.1 SW 5 6 1005.0 - 35.8 - - - - - - -
17/03:00am 25.1 SW 5 6 1005.2 - 35.8 - - - - - - -
17/02:30am 25.2 SSW 4 5 1005.7 - 35.8 - - - - - - -
17/02:00am 25.2 SSW 4 5 1005.9 - 35.8 - - - - - - -
17/01:30am 25.3 S 4 6 1006.3 - 35.8 - - - - - - -
17/01:00am 25.4 SSW 4 5 1006.7 - 35.8 - - - - - - -
17/12:30am 25.4 S 4 6 1007.1 - 35.8 - - - - - - -
17/12:00am 25.7 SSW 5 8 1007.7 - 35.8 - - - - - - -
 
Date/Time
WST
Temp

°C
Wind Pressure Rain
since 9am
mm
Weather Cloud Vis
km
Sea
Height
m
Swell
Dir
 
Speed
knots
Gust
knots
hPa Trend Height
m
Period
s
Dir
16/11:30pm 25.7 SSW 8 11 1007.8 - 35.8 - - - - - - -
16/11:00pm 25.8 S 10 12 1007.6 - 35.8 - - - - - - -
16/10:30pm 25.8 NNW 1 4 1007.6 - 35.8 - - - - - - -
16/10:00pm 25.8 W 5 9 1008.3 - 35.8 - - - - - - -
16/09:30pm 25.4 SSW 6 8 1008.4 - 35.8 - - - - - - -
16/09:00pm 24.5 NNE 2 5 1008.1 - 35.8 Rain - - - - - -
16/08:30pm 24.0 NE 7 10 1007.5 - 35.6 - - - - - - -
16/08:00pm 23.2 SSE 5 8 1008.8 - 32.8 - - - - - - -
16/07:30pm 24.0 ESE 6 9 1009.0 - 15.4 - - - - - - -
16/07:00pm 24.1 E 12 23 1008.3 - 6.8 - - - - - - -
16/06:30pm 27.5 E 25 36 1006.4 - 0.0 - - - - - - -
16/06:20pm 29.3 ENE 18 38 1005.5 - 0.0 - - - - - - -
16/06:09pm 30.8 N 10 27 1006.2 - 0.0 - - - - - - -
16/06:00pm 34.0 NNW 9 12 1005.1 - 0.0 - - - - - - -
16/05:30pm 34.3 N 9 11 1004.6 - 0.0 - - - - - - -
16/05:00pm 34.5 NNW 10 14 1004.1 - 0.0 - - - - - - -
16/04:30pm 34.6 NNW 14 18 1003.4 - 0.0 - - - - - - -
16/04:00pm 35.4 NNW 16 20 1003.3 - 0.0 - - - - - - -
16/03:30pm 35.6 NNW 15 18 1003.1 - 0.0 - - - - - - -
16/03:00pm 35.1 NNW 15 17 1003.3 - 0.0 - - - - - - -
16/02:30pm 35.3 NNW 14 17 1003.5 - 0.0 - - - - - - -
16/02:00pm 36.3 NW 11 16 1004.1 - 0.0 - - - - - - -
16/01:30pm 36.9 NW 9 12 1004.8 - 0.0 - - - - - - -
16/01:00pm 36.5 WNW 8 12 1005.7 - 0.0 - - - - - - -
16/12:30pm 36.9 W 8 13 1006.2 - 0.0 - - - - - - -
16/12:00pm 35.8 W 7 11 1006.6 - 0.0 - - - - - - -
16/11:30am 36.2 WNW 7 10 1007.0 - 0.0 - - - - - - -
16/11:00am 34.8 WSW 5 7 1007.4 - 0.0 - - - - - - -
16/10:30am 34.1 SW 6 9 1007.8 - 0.0 - - - - - - -
16/10:00am 33.9 WSW 5 10 1008.0 - 0.0 - - - - - - -
16/09:30am 33.1 W 7 10 1008.2 - 0.0 - - - - - - -
16/09:00am 32.3 SW 5 10 1008.6 - 0.0 - - - - - - -
16/08:30am 31.4 SSW 9 13 1008.4 - 0.0 - - - - - - -
16/08:00am 30.7 SW 9 11 1008.4 - 0.0 - - - - - - -
16/07:30am 30.1 SW 9 11 1008.2 - 0.0 - - - - - - -
16/07:00am 29.3 SW 6 8 1008.1 - 0.0 - - - - - - -
16/06:30am 29.0 SSW 5 7 1007.7 - 0.0 - - - - - - -
16/06:00am 28.4 CALM 0 3 1007.5 - 0.0 - - - - - - -
16/05:30am 27.4 WSW 3 4 1006.8 - 0.0 - - - - - - -
16/05:00am 27.5 W 3 4 1006.4 - 0.0 - - - - - - -
16/04:30am 27.5 WSW 4 5 1006.0 - 0.0 - - - - - - -
16/04:00am 27.6 WSW 5 7 1005.7 - 0.0 - - - - - - -
16/03:30am 27.8 WSW 6 7 1005.7 - 0.0 - - - - - - -
16/03:00am 28.2 W 5 6 1005.8 - 0.0 - - - - - - -
16/02:30am 28.3 W 5 6 1005.6 - 0.0 - - - - - - -
16/02:00am 28.5 W 5 7 1005.4 - 0.0 - - - - - - -
16/01:30am 28.6 WSW 5 6 1005.5 - 0.0 - - - - - - -
16/01:00am 28.8 W 6 7 1005.5 - 0.0 - - - - - - -
16/12:30am 28.9 WSW 7 8 1005.6 - 0.0 - - - - - - -
16/12:00am 29.1 WSW 8 10 1005.8 - 0.0 - - - - - - -
 
Date/Time
WST
Temp

°C
Wind Pressure Rain
since 9am
mm
Weather Cloud Vis
km
Sea
Height
m
Swell
Dir
 
Speed
knots
Gust
knots
hPa Trend Height
m
Period
s
Dir
15/11:30pm 29.5 WSW 10 13 1006.1 - 0.0 - - - - - - -
15/11:00pm 29.4 WSW 7 9 1006.8 - 0.0 - - - - - - -
15/10:30pm 29.7 WNW 6 8 1007.1 - 0.0 - - - - - - -
15/10:00pm 29.9 N 4 6 1007.6 - 0.0 - - - - - - -
15/09:30pm 30.2 N 7 8 1007.4 - 0.0 - - - - - - -
15/09:00pm 29.9 NNW 3 5 1007.7 - 0.0 - - - - - - -
15/08:30pm 29.4 NNW 5 6 1007.2 - 0.0 - - - - - - -
15/08:00pm 29.3 NW 3 5 1007.2 - 0.0 - - - - - - -
15/07:30pm 29.5 NNW 2 4 1006.3 - 0.0 - - - - - - -
15/07:00pm 29.0 NNW 3 7 1005.8 - 0.0 - - - - - - -
15/06:30pm 28.5 N 8 10 1006.2 - 0.0 - - - - - - -
15/06:00pm 28.3 NE 17 24 1006.5 - 0.0 - - - - - - -
15/05:45pm 27.8 NE 15 25 1006.9 - 0.0 - - - - - - -
15/05:30pm 29.7 NE 15 23 1006.8 - 0.0 - - - - - - -
15/05:29pm 30.1 NE 15 23 1006.8 - 0.0 - - - - - - -
15/05:00pm 32.9 NW 8 10 1005.3 - 0.0 - - - - - - -
15/04:30pm 33.2 WNW 10 14 1004.7 - 0.0 - - - - - - -
15/04:00pm 33.5 WNW 12 15 1004.2 - 0.0 - - - - - - -
15/03:30pm 34.9 WSW 11 21 1004.3 - 0.0 - - - - - - -

Other Formats:

Comma delimited format used in spreadsheet applications
http://www.bom.gov.au/fwo/IDW60701/IDW60701.95205.axf

JavaScript Object Notation format (JSON) in row-major order
http://www.bom.gov.au/fwo/IDW60701/IDW60701.95205.json